Portsmouth, Virginia - KPWR: 24-hour Summary Portsmouth Weather Records Service - Portsmouth, Virginia



LOCAL CLIMATOLOGICAL DATA: Morning 24-hour Summary
[updated each morning between 7AM and 9AM]
Station: Portsmouth, Virginia - KPWR Latitude: 36° 48' 04" N Longitude: 76° 19' 37" W Elevation (ground): 13 ft. Time Zone: Eastern

BE SURE TO RELOAD/REFRESH THIS SCREEN FOR DAILY UPDATES BY RIGHT-CLICKING THE BACKGROUND The data in this frame and listed below are final adjusted site data for the time period.


------------------------------------------------------------------------------------------------------------------------------------------		
THURSDAY		Temp	Hi	Low	Out	Dew	Wind	Wind	Wind	Hi	Hi	Wind	Heat	THW			Rain	Heat	Cool	In 	In	In 	In 	Wind	Wind	ISS 	Arc.
Date		Time	Out	Temp	Temp	Hum	Pt.	Speed	Dir	Run	Speed	Dir	Chill	Index	Index	Bar  	Rain	Rate	D-D 	D-D 	Temp	Hum	Dew	Heat	Samp	Tx 	Recept	Int.
11/16/17	1:00 a	51.7	51.7	51.4	91	49.2	0.0	NW	0.00	12.0	W	51.7	51.9	51.9	29.999	0.00	0.00	0.554	0.000	80.1	37	51.5	78.8	1404	1	100.0	60
11/16/17	2:00 a	51.4	51.7	51.3	92	49.2	0.0	---	0.00	0.0	---	51.4	51.7	51.7	29.996	0.00	0.00	0.567	0.000	80.2	37	51.6	78.9	1404	1	100.0	60
11/16/17	3:00 a	51.3	51.4	51.3	91	48.8	0.0	WNW	0.00	14.0	WSW	51.3	51.5	51.5	29.986	0.00	0.00	0.571	0.000	80.3	37	51.7	79.0	1405	1	100.0	60
11/16/17	4:00 a	51.4	51.5	51.3	90	48.6	0.0	W	0.00	10.0	WNW	51.4	51.6	51.6	29.965	0.00	0.00	0.567	0.000	80.3	37	51.7	79.0	1406	1	100.0	60
11/16/17	5:00 a	50.7	51.4	50.7	90	47.9	0.0	W	0.00	5.0	W	50.7	50.9	50.9	29.974	0.00	0.00	0.596	0.000	80.1	37	51.5	78.8	1404	1	100.0	60
11/16/17	6:00 a	49.8	50.7	49.8	90	47.0	0.0	WSW	0.00	7.0	WNW	49.8	50.1	50.1	29.959	0.00	0.00	0.633	0.000	79.5	37	50.9	78.3	1405	1	100.0	60
11/16/17	7:00 a	48.3	49.8	48.3	91	45.8	0.0	WNW	0.00	7.0	W	48.3	48.6	48.6	29.959	0.00	0.00	0.696	0.000	80.3	37	51.7	79.0	1405	1	100.0	60
11/16/17	8:00 a	47.6	48.3	47.5	93	45.7	0.0	WSW	0.00	12.0	SSW	47.6	47.9	47.9	29.968	0.00	0.00	0.725	0.000	78.3	38	50.6	77.3	1405	1	100.0	60
11/16/17	9:00 a	49.7	49.7	47.6	84	45.1	4.0	W	4.00	15.0	WNW	48.5	49.8	48.6	29.969	0.00	0.00	0.637	0.000	75.3	42	50.6	74.7	1405	1	100.0	60
11/16/17	10:00 a	53.3	53.3	49.7	78	46.6	4.0	W	4.00	16.0	SW	52.7	52.9	52.3	29.968	0.00	0.00	0.488	0.000	75.7	42	51.0	75.0	1405	1	100.0	60
11/16/17	11:00 a	57.2	57.2	53.3	72	48.3	4.0	WNW	4.00	15.0	WNW	57.2	56.5	56.5	29.943	0.00	0.00	0.325	0.000	77.3	41	51.8	76.5	1405	1	100.0	60
11/16/17	12:00 p	60.4	60.4	57.2	63	47.7	7.0	W	7.00	20.0	WSW	59.7	59.4	58.7	29.911	0.00	0.00	0.192	0.000	78.4	40	52.1	77.5	1405	1	100.0	60
11/16/17	1:00 p	62.3	62.3	60.4	56	46.4	6.0	WNW	6.00	20.0	WSW	62.3	60.9	60.9	29.894	0.00	0.00	0.113	0.000	78.0	41	52.4	77.2	1405	1	100.0	60
11/16/17	2:00 p	63.1	63.1	62.3	58	48.1	0.0	WNW	0.00	18.0	WNW	63.1	61.9	61.9	29.880	0.00	0.00	0.079	0.000	80.4	39	53.2	79.3	1405	1	100.0	60
11/16/17	3:00 p	63.5	63.5	63.1	55	47.0	0.0	W	0.00	17.0	WNW	63.5	62.1	62.1	29.884	0.00	0.00	0.063	0.000	80.0	40	53.5	79.0	1404	1	100.0	60
11/16/17	4:00 p	62.7	63.5	62.7	53	45.3	0.0	NW	0.00	19.0	WSW	62.7	61.1	61.1	29.896	0.00	0.00	0.096	0.000	79.4	41	53.6	78.6	1406	1	100.0	60
11/16/17	5:00 p	60.7	62.7	60.7	59	46.3	0.0	---	0.00	0.0	---	60.7	59.4	59.4	29.911	0.00	0.00	0.179	0.000	78.8	41	53.1	78.1	1404	1	100.0	60
11/16/17	6:00 p	56.9	60.7	56.9	68	46.4	0.0	---	0.00	0.0	---	56.9	56.0	56.0	29.938	0.00	0.00	0.337	0.000	77.8	42	52.9	77.1	1405	1	100.0	60
11/16/17	7:00 p	52.8	56.9	52.8	76	45.4	0.0	---	0.00	0.0	---	52.8	52.4	52.4	29.957	0.00	0.00	0.508	0.000	77.6	42	52.7	76.9	1405	1	100.0	60
11/16/17	8:00 p	49.9	52.8	49.9	82	44.6	0.0	---	0.00	0.0	---	49.9	49.9	49.9	29.970	0.00	0.00	0.629	0.000	80.3	38	52.4	79.1	1405	1	100.0	60
11/16/17	9:00 p	47.7	49.9	47.7	85	43.4	0.0	---	0.00	0.0	---	47.7	47.7	47.7	29.983	0.00	0.00	0.721	0.000	80.6	37	51.9	79.3	1405	1	100.0	60
11/16/17	10:00 p	52.3	52.3	47.4	69	42.4	0.0	NW	0.00	20.0	NW	52.3	51.6	51.6	30.033	0.00	0.00	0.529	0.000	80.1	37	51.5	78.8	1405	1	100.0	60
11/16/17	11:00 p	51.7	52.7	51.7	63	39.5	0.0	NNW	0.00	20.0	NW	51.7	50.9	50.9	30.057	0.00	0.00	0.554	0.000	78.5	38	50.8	77.5	1405	1	100.0	60
11/17/17	12:00 a	49.5	51.7	49.5	65	38.2	0.0	NW	0.00	18.0	NW	49.5	48.9	48.9	30.075	0.00	0.00	0.646	0.000	79.5	37	50.9	78.3	1406	1	100.0	60

FRIDAY			Temp	Hi	Low	Out	Dew	Wind	Wind	Wind	Hi	Hi	Wind	Heat	THW			Rain	Heat	Cool	In 	In	In 	In 	Wind	Wind	ISS 	Arc.
Date		Time	Out	Temp	Temp	Hum	Pt.	Speed	Dir	Run	Speed	Dir	Chill	Index	Index	Bar  	Rain	Rate	D-D 	D-D 	Temp	Hum	Dew	Heat	Samp	Tx 	Recept	Int.
11/17/17	1:00 a	47.4	49.5	47.4	67	37.0	0.0	WNW	0.00	16.0	WNW	47.4	46.8	46.8	30.083	0.00	0.00	0.733	0.000	79.9	36	50.6	78.5	1403	1	100.0	60
11/17/17	2:00 a	45.9	47.4	45.9	68	35.9	0.0	NW	0.00	20.0	NNW	45.9	45.3	45.3	30.110	0.00	0.00	0.796	0.000	79.8	36	50.5	78.5	1404	1	100.0	60
11/17/17	3:00 a	44.9	45.9	44.9	69	35.3	0.0	NNW	0.00	23.0	NW	44.9	44.4	44.4	30.122	0.00	0.00	0.837	0.000	79.6	36	50.3	78.3	1405	1	100.0	60
11/17/17	4:00 a	44.3	45.0	44.3	69	34.8	0.0	NW	0.00	18.0	NNW	44.3	43.8	43.8	30.123	0.00	0.00	0.863	0.000	79.2	35	49.2	77.9	1405	1	100.0	60
11/17/17	5:00 a	44.3	44.6	44.3	67	34.0	0.0	NNW	0.00	19.0	NNW	44.3	43.7	43.7	30.144	0.00	0.00	0.863	0.000	79.2	35	49.2	77.9	1405	1	100.0	60
11/17/17	6:00 a	43.5	44.3	43.5	69	34.0	0.0	NNW	0.00	4.0	NNW	43.5	42.9	42.9	30.163	0.00	0.00	0.896	0.000	78.2	35	48.3	76.9	1405	1	100.0	60
11/17/17	7:00 a	42.9	43.5	42.9	73	34.8	0.0	WNW	0.00	5.0	WNW	42.9	42.4	42.4	30.175	0.00	0.00	0.921	0.000	78.5	35	48.6	77.3	1405	1	100.0	60

			Temp	Hi	Low	Out	Dew	Wind	Wind	Wind	Hi	Hi	Wind	Heat	THW			Rain	Heat	Cool	In 	In	In 	In 	Wind	Wind	ISS 	Arc.
Date		Time	Out	Temp	Temp	Hum	Pt.	Speed	Dir	Run	Speed	Dir	Chill	Index	Index	Bar  	Rain	Rate	D-D 	D-D 	Temp	Hum	Dew	Heat	Samp	Tx 	Recept	Int.
------------------------------------------------------------------------------------------------------------------------------------------